createdAt,value
2023-03-16T00:00:18.484Z,6.03
2023-03-16T00:02:45.545Z,5.07
2023-03-16T00:05:14.632Z,4.07
2023-03-16T00:07:42.249Z,4.10
2023-03-16T00:10:12.455Z,3.63
2023-03-16T00:12:39.787Z,5.23
2023-03-16T00:15:07.649Z,4.73
2023-03-16T00:17:34.773Z,5.63
2023-03-16T00:20:03.194Z,4.07
2023-03-16T00:22:30.746Z,4.13
2023-03-16T00:24:57.950Z,10.73
2023-03-16T00:27:26.512Z,5.43
2023-03-16T00:29:55.922Z,7.43
2023-03-16T00:32:28.173Z,5.73
2023-03-16T00:34:55.778Z,4.53
2023-03-16T00:37:24.568Z,9.10
2023-03-16T00:39:52.786Z,8.30
2023-03-16T00:42:20.558Z,4.90
2023-03-16T00:44:47.500Z,5.07
2023-03-16T00:47:15.143Z,10.40
2023-03-16T00:49:44.573Z,8.10
2023-03-16T00:52:16.441Z,7.30
2023-03-16T00:54:46.219Z,11.03
2023-03-16T00:57:21.528Z,7.33
2023-03-16T00:59:49.346Z,5.97
2023-03-16T01:02:19.833Z,5.30
2023-03-16T01:04:46.720Z,6.53
2023-03-16T01:07:15.017Z,5.97
2023-03-16T01:09:43.491Z,4.90
2023-03-16T01:12:15.229Z,4.93
2023-03-16T01:14:45.812Z,4.33
2023-03-16T01:17:14.599Z,3.97
2023-03-16T01:19:42.832Z,5.90
2023-03-16T01:22:11.761Z,4.23
2023-03-16T01:24:39.994Z,4.33
2023-03-16T01:27:07.847Z,4.93
2023-03-16T01:29:35.377Z,6.63
2023-03-16T01:32:04.038Z,4.03
2023-03-16T01:34:32.132Z,5.87
2023-03-16T01:36:59.357Z,4.57
2023-03-16T01:39:26.974Z,4.43
2023-03-16T01:41:53.911Z,6.33
2023-03-16T01:44:28.318Z,5.03
2023-03-16T01:46:55.213Z,4.70
2023-03-16T01:49:35.015Z,8.47
2023-03-16T01:52:21.692Z,4.77
2023-03-16T01:55:08.359Z,4.20
2023-03-16T01:57:43.941Z,4.33
2023-03-16T02:00:19.975Z,5.60
2023-03-16T02:02:57.391Z,3.50
2023-03-16T02:06:03.235Z,5.67
2023-03-16T02:08:31.893Z,5.70
2023-03-16T02:10:59.698Z,3.37
2023-03-16T02:13:29.548Z,6.53
2023-03-16T02:15:56.978Z,6.23
2023-03-16T02:18:24.725Z,5.70
2023-03-16T02:20:53.670Z,7.00
2023-03-16T02:23:24.049Z,5.77
2023-03-16T02:26:25.252Z,4.03
2023-03-16T02:29:01.185Z,4.07
2023-03-16T02:31:28.641Z,5.80
2023-03-16T02:33:57.567Z,4.07
2023-03-16T02:36:24.561Z,6.50
2023-03-16T02:38:51.522Z,4.40
2023-03-16T02:41:21.064Z,4.53
2023-03-16T02:44:24.136Z,4.97
2023-03-16T02:46:56.367Z,4.60
2023-03-16T02:49:35.843Z,4.50
2023-03-16T02:52:04.462Z,4.27
2023-03-16T02:54:31.802Z,7.70
2023-03-16T02:56:58.861Z,3.20
2023-03-16T02:59:25.741Z,4.07
2023-03-16T03:01:53.241Z,3.77
2023-03-16T03:04:23.553Z,4.90
2023-03-16T03:06:51.615Z,8.10
2023-03-16T03:09:19.553Z,4.30
2023-03-16T03:11:50.653Z,4.77
2023-03-16T03:14:17.657Z,3.87
2023-03-16T03:16:46.767Z,6.87
2023-03-16T03:19:13.993Z,4.67
2023-03-16T03:21:41.598Z,3.30
2023-03-16T03:24:09.561Z,4.80
2023-03-16T03:26:38.177Z,6.03
2023-03-16T03:29:05.402Z,3.23
2023-03-16T03:31:32.355Z,3.67
2023-03-16T03:33:59.482Z,3.90
2023-03-16T03:36:26.503Z,4.40
2023-03-16T03:38:54.907Z,5.73
2023-03-16T03:41:22.526Z,4.63
2023-03-16T03:43:49.646Z,3.53
2023-03-16T03:46:16.731Z,5.80
2023-03-16T03:48:43.738Z,7.13
2023-03-16T03:51:10.651Z,6.13
2023-03-16T03:53:37.537Z,4.23
2023-03-16T03:56:04.704Z,8.87
2023-03-16T03:58:31.670Z,4.83
2023-03-16T04:00:58.633Z,4.40
2023-03-16T04:03:25.596Z,6.37
2023-03-16T04:05:52.623Z,5.00
2023-03-16T04:08:19.704Z,5.90
2023-03-16T04:10:47.573Z,6.17
2023-03-16T04:13:14.594Z,7.40
2023-03-16T04:15:41.473Z,7.93
2023-03-16T04:18:08.580Z,6.87
2023-03-16T04:20:36.015Z,6.40
2023-03-16T04:23:02.986Z,7.80
2023-03-16T04:25:30.599Z,4.47
2023-03-16T04:27:57.729Z,5.20
2023-03-16T04:30:26.147Z,4.70
2023-03-16T04:32:53.356Z,7.00
2023-03-16T04:35:20.391Z,6.03
2023-03-16T04:37:47.391Z,6.00
2023-03-16T04:40:17.481Z,6.73
2023-03-16T04:42:46.296Z,4.87
2023-03-16T04:45:14.560Z,6.27
2023-03-16T04:47:41.614Z,7.80
2023-03-16T04:50:10.503Z,6.63
2023-03-16T04:52:37.449Z,5.03
2023-03-16T04:55:05.937Z,4.97
2023-03-16T04:57:33.062Z,5.50
2023-03-16T05:00:00.020Z,5.33
2023-03-16T05:02:27.070Z,7.03
2023-03-16T05:04:55.144Z,7.03
2023-03-16T05:07:22.045Z,6.43
2023-03-16T05:09:49.066Z,7.33
2023-03-16T05:12:15.945Z,6.80
2023-03-16T05:14:42.936Z,4.80
2023-03-16T05:17:09.887Z,8.10
2023-03-16T05:19:36.798Z,7.60
2023-03-16T05:22:03.758Z,6.70
2023-03-16T05:24:30.706Z,7.07
2023-03-16T05:26:57.643Z,7.90
2023-03-16T05:29:26.088Z,6.40
2023-03-16T05:31:53.072Z,9.50
2023-03-16T05:34:20.244Z,12.50
2023-03-16T05:36:47.234Z,21.07
2023-03-16T05:39:14.388Z,26.90
2023-03-16T05:41:41.478Z,11.87
2023-03-16T05:44:09.063Z,8.70
2023-03-16T05:46:36.150Z,16.40
2023-03-16T05:49:03.978Z,8.33
2023-03-16T05:51:31.109Z,5.33
2023-03-16T05:53:58.261Z,5.10
2023-03-16T05:56:27.171Z,3.30
2023-03-16T05:58:55.593Z,4.00
2023-03-16T06:01:23.441Z,5.73
2023-03-16T06:03:51.963Z,5.10
2023-03-16T06:06:22.549Z,4.47
2023-03-16T06:08:49.529Z,4.13
2023-03-16T06:11:17.233Z,4.53
2023-03-16T06:13:44.210Z,4.93
2023-03-16T06:16:14.625Z,4.30
2023-03-16T06:18:41.697Z,4.60
2023-03-16T06:21:08.820Z,4.93
2023-03-16T06:23:35.745Z,4.23
2023-03-16T06:26:02.707Z,4.70
2023-03-16T06:28:30.947Z,6.23
2023-03-16T06:30:58.492Z,4.30
2023-03-16T06:33:25.743Z,5.43
2023-03-16T06:35:52.850Z,3.37
2023-03-16T06:38:20.184Z,3.50
2023-03-16T06:40:55.247Z,5.03
2023-03-16T06:43:22.875Z,4.97
2023-03-16T06:45:49.927Z,3.53
2023-03-16T06:48:16.840Z,6.60
2023-03-16T06:50:46.634Z,4.67
2023-03-16T06:53:13.676Z,3.83
2023-03-16T06:55:41.557Z,4.63
2023-03-16T06:58:08.444Z,4.23
2023-03-16T07:00:35.553Z,3.17
2023-03-16T07:03:02.425Z,4.10
2023-03-16T07:05:29.712Z,3.97
2023-03-16T07:07:56.650Z,6.30
2023-03-16T07:10:25.242Z,6.10
2023-03-16T07:12:52.209Z,14.57
2023-03-16T07:15:19.894Z,7.10
2023-03-16T07:17:46.825Z,3.63
2023-03-16T07:20:14.097Z,3.10
2023-03-16T07:22:41.841Z,6.80
2023-03-16T07:25:11.275Z,3.80
2023-03-16T07:27:38.972Z,5.97
2023-03-16T07:30:06.677Z,5.63
2023-03-16T07:32:33.703Z,7.27
2023-03-16T07:35:00.825Z,5.37
2023-03-16T07:37:27.849Z,5.27
2023-03-16T07:39:55.020Z,5.80
2023-03-16T07:42:22.817Z,5.00
2023-03-16T07:44:51.797Z,12.80
2023-03-16T07:47:19.366Z,13.00
2023-03-16T07:49:46.349Z,6.27
2023-03-16T07:52:13.672Z,5.20
2023-03-16T07:54:41.457Z,6.97
2023-03-16T07:57:08.960Z,3.80
2023-03-16T07:59:36.020Z,5.57
2023-03-16T08:02:03.825Z,4.07
2023-03-16T08:04:31.436Z,6.60
2023-03-16T08:07:02.199Z,6.07
2023-03-16T08:09:29.282Z,5.97
2023-03-16T08:11:56.204Z,5.07
2023-03-16T08:14:23.717Z,3.73
2023-03-16T08:16:50.652Z,8.33
2023-03-16T08:19:17.874Z,12.73
2023-03-16T08:22:00.356Z,4.43
2023-03-16T08:24:29.587Z,4.07
2023-03-16T08:26:57.911Z,6.53
2023-03-16T08:29:26.411Z,14.80
2023-03-16T08:31:56.223Z,16.30
2023-03-16T08:34:24.697Z,4.40
2023-03-16T08:36:51.585Z,8.00
2023-03-16T08:39:18.783Z,4.30
2023-03-16T08:41:47.099Z,5.43
2023-03-16T08:44:14.221Z,4.97
2023-03-16T08:46:42.343Z,3.93
2023-03-16T08:49:09.438Z,3.97
2023-03-16T08:51:36.973Z,3.47
2023-03-16T08:54:04.084Z,3.30
2023-03-16T08:56:31.073Z,6.70
2023-03-16T08:58:58.466Z,8.07
2023-03-16T09:01:26.554Z,4.93
2023-03-16T09:03:53.678Z,5.83
2023-03-16T09:06:22.168Z,10.60
2023-03-16T09:08:49.189Z,8.67
2023-03-16T09:11:19.104Z,5.20
2023-03-16T09:13:47.448Z,13.60
2023-03-16T09:16:15.827Z,18.23
2023-03-16T09:18:43.433Z,5.60
2023-03-16T09:21:13.878Z,3.43
2023-03-16T09:23:44.600Z,3.43
2023-03-16T09:26:13.249Z,6.30
2023-03-16T09:28:44.777Z,4.03
2023-03-16T09:31:19.129Z,4.70
2023-03-16T09:33:46.964Z,3.43
2023-03-16T09:36:15.511Z,3.13
2023-03-16T09:38:43.860Z,5.27
2023-03-16T09:41:34.786Z,4.67
2023-03-16T09:44:31.402Z,4.00
2023-03-16T09:47:01.953Z,3.53
2023-03-16T09:49:36.472Z,5.60
2023-03-16T09:52:33.360Z,10.80
2023-03-16T09:55:12.094Z,12.83
2023-03-16T09:57:43.068Z,9.20
2023-03-16T10:00:39.933Z,3.67
2023-03-16T10:03:30.694Z,6.77
2023-03-16T10:06:02.248Z,5.50
2023-03-16T10:09:04.436Z,4.00
2023-03-16T10:11:41.594Z,2.87
2023-03-16T10:14:28.710Z,3.90
2023-03-16T10:17:17.745Z,5.70
2023-03-16T10:19:58.092Z,7.27
2023-03-16T10:22:31.415Z,5.73
2023-03-16T10:25:52.278Z,3.90
2023-03-16T10:28:23.751Z,6.63
2023-03-16T10:30:54.653Z,6.20
2023-03-16T10:33:33.561Z,10.40
2023-03-16T10:36:05.686Z,2.93
2023-03-16T10:38:41.164Z,4.40
2023-03-16T10:41:23.033Z,5.20
2023-03-16T10:43:55.573Z,4.50
2023-03-16T10:46:25.846Z,3.50
2023-03-16T10:48:59.754Z,11.90
2023-03-16T10:51:30.958Z,10.10
2023-03-16T10:54:10.819Z,2.97
2023-03-16T10:56:38.354Z,2.80
2023-03-16T10:59:38.148Z,4.60
2023-03-16T11:02:34.465Z,2.17
2023-03-16T11:05:28.507Z,3.10
2023-03-16T11:08:12.014Z,4.27
2023-03-16T11:10:54.669Z,4.53
2023-03-16T11:13:22.941Z,4.07
2023-03-16T11:16:01.661Z,2.37
2023-03-16T11:18:33.132Z,3.00
2023-03-16T11:21:25.771Z,3.40
2023-03-16T11:23:57.081Z,2.83
2023-03-16T11:26:36.528Z,3.73
2023-03-16T11:29:23.707Z,4.03
2023-03-16T11:32:15.378Z,2.27
2023-03-16T11:34:43.515Z,3.33
2023-03-16T11:37:38.273Z,2.73
2023-03-16T11:40:38.508Z,3.90
2023-03-16T11:43:56.849Z,3.10
2023-03-16T11:46:31.961Z,2.50
2023-03-16T11:49:33.082Z,3.60
2023-03-16T11:52:46.955Z,2.70
2023-03-16T11:55:25.916Z,2.50
2023-03-16T11:58:35.117Z,8.93
2023-03-16T12:01:18.311Z,18.20
2023-03-16T12:03:50.237Z,11.23
2023-03-16T12:06:33.530Z,3.70
2023-03-16T12:09:06.484Z,4.30
2023-03-16T12:11:46.169Z,3.47
2023-03-16T12:14:44.261Z,3.77
2023-03-16T12:17:23.426Z,3.17
2023-03-16T12:20:02.042Z,4.40
2023-03-16T12:22:38.700Z,4.47
2023-03-16T12:25:22.117Z,2.97
2023-03-16T12:27:54.401Z,3.23
2023-03-16T12:30:39.676Z,5.33
2023-03-16T12:33:42.190Z,3.17
2023-03-16T12:36:33.810Z,4.43
2023-03-16T12:39:35.965Z,2.60
2023-03-16T12:42:51.887Z,3.50
2023-03-16T12:45:52.899Z,2.80
2023-03-16T12:48:34.168Z,6.00
2023-03-16T12:51:03.848Z,2.67
2023-03-16T12:53:46.945Z,3.23
2023-03-16T12:56:20.185Z,4.57
2023-03-16T12:58:50.295Z,2.77
2023-03-16T13:01:20.784Z,3.23
2023-03-16T13:03:50.973Z,2.93
2023-03-16T13:06:36.211Z,6.20
2023-03-16T13:09:07.200Z,4.07
2023-03-16T13:11:50.074Z,2.40
2023-03-16T13:14:44.820Z,3.73
2023-03-16T13:17:17.632Z,2.53
2023-03-16T13:19:48.085Z,4.63
2023-03-16T13:22:50.886Z,4.33
2023-03-16T13:25:23.311Z,3.60
2023-03-16T13:27:55.455Z,2.77
2023-03-16T13:30:25.816Z,3.83
2023-03-16T13:32:56.324Z,2.87
2023-03-16T13:35:28.565Z,2.37
2023-03-16T13:38:05.593Z,2.73
2023-03-16T13:40:33.054Z,5.27
2023-03-16T13:43:01.972Z,4.10
2023-03-16T13:45:34.879Z,3.10
2023-03-16T13:48:02.162Z,4.30
2023-03-16T13:50:33.965Z,3.07
2023-03-16T13:53:04.634Z,3.73
2023-03-16T13:55:36.965Z,2.77
2023-03-16T13:58:05.582Z,4.80
2023-03-16T14:00:36.953Z,3.90
2023-03-16T14:03:18.663Z,3.23
2023-03-16T14:05:47.545Z,3.67
2023-03-16T14:08:21.893Z,3.00
2023-03-16T14:10:49.645Z,2.93
2023-03-16T14:13:29.261Z,4.23
2023-03-16T14:16:17.673Z,8.40
2023-03-16T14:18:54.703Z,3.70
2023-03-16T14:21:25.630Z,3.20
2023-03-16T14:23:58.140Z,4.30
2023-03-16T14:26:26.172Z,3.97
2023-03-16T14:29:03.425Z,3.30
2023-03-16T14:31:38.581Z,4.43
2023-03-16T14:34:39.532Z,3.67
2023-03-16T14:37:17.087Z,4.87
2023-03-16T14:39:44.017Z,5.90
2023-03-16T14:42:19.947Z,6.67
2023-03-16T14:44:48.278Z,3.67
2023-03-16T14:47:24.622Z,3.63
2023-03-16T14:49:52.353Z,3.33
2023-03-16T14:52:31.680Z,4.07
2023-03-16T14:55:03.014Z,3.50
2023-03-16T14:57:30.617Z,3.07
2023-03-16T14:59:57.552Z,4.90
2023-03-16T15:02:30.584Z,3.83
2023-03-16T15:04:58.888Z,4.07
2023-03-16T15:07:33.660Z,3.33
2023-03-16T15:10:10.803Z,4.67
2023-03-16T15:12:37.909Z,3.70
2023-03-16T15:15:20.500Z,3.80
2023-03-16T15:17:50.412Z,5.10
2023-03-16T15:20:20.140Z,12.50
2023-03-16T15:22:49.380Z,15.73
2023-03-16T15:25:24.710Z,3.67
2023-03-16T15:27:54.324Z,4.17
2023-03-16T15:30:28.939Z,5.63
2023-03-16T15:32:56.565Z,3.00
2023-03-16T15:35:23.635Z,3.83
2023-03-16T15:37:51.207Z,4.67
2023-03-16T15:40:26.207Z,7.33
2023-03-16T15:42:53.307Z,5.20
2023-03-16T15:45:22.929Z,5.33
2023-03-16T15:47:51.859Z,4.13
2023-03-16T15:50:24.365Z,4.87
2023-03-16T15:52:59.476Z,5.10
2023-03-16T15:55:36.678Z,3.80
2023-03-16T15:58:05.276Z,5.23
2023-03-16T16:00:37.807Z,5.10
2023-03-16T16:03:06.835Z,4.40
2023-03-16T16:05:34.411Z,5.17
2023-03-16T16:08:01.407Z,4.60
2023-03-16T16:10:29.282Z,5.60
2023-03-16T16:12:57.043Z,4.37
2023-03-16T16:15:35.567Z,4.23
2023-03-16T16:18:28.523Z,4.43
2023-03-16T16:20:56.585Z,4.63
2023-03-16T16:23:25.589Z,4.23
2023-03-16T16:25:56.678Z,5.07
2023-03-16T16:28:27.185Z,5.13
2023-03-16T16:30:54.144Z,4.70
2023-03-16T16:33:29.529Z,5.07
2023-03-16T16:36:00.423Z,4.10
2023-03-16T16:38:28.356Z,6.10
2023-03-16T16:40:58.791Z,4.80
2023-03-16T16:43:42.471Z,5.80
2023-03-16T16:46:16.735Z,4.30
2023-03-16T16:48:50.618Z,4.20
2023-03-16T16:51:27.045Z,6.70
2023-03-16T16:53:59.558Z,5.03
2023-03-16T16:56:33.160Z,3.73
2023-03-16T16:59:22.827Z,6.20
2023-03-16T17:01:52.200Z,5.33
2023-03-16T17:04:25.599Z,5.80
2023-03-16T17:06:55.864Z,5.97
2023-03-16T17:09:24.109Z,7.97
2023-03-16T17:11:51.719Z,17.83
2023-03-16T17:14:21.313Z,10.77
2023-03-16T17:16:50.409Z,9.00
2023-03-16T17:19:27.837Z,8.10
2023-03-16T17:21:57.558Z,10.87
2023-03-16T17:24:25.026Z,20.23
2023-03-16T17:27:02.542Z,8.63
2023-03-16T17:29:34.180Z,16.03
2023-03-16T17:32:04.260Z,13.80
2023-03-16T17:34:34.212Z,13.20
2023-03-16T17:37:02.215Z,15.67
2023-03-16T17:39:34.497Z,13.47
2023-03-16T17:42:06.996Z,13.40
2023-03-16T17:44:40.188Z,17.20
2023-03-16T17:47:25.121Z,16.30
2023-03-16T17:49:52.790Z,13.30
2023-03-16T17:52:23.549Z,11.00
2023-03-16T17:54:53.313Z,13.40
2023-03-16T17:57:29.510Z,12.80
2023-03-16T17:59:56.945Z,13.87
2023-03-16T18:02:54.077Z,13.10
2023-03-16T18:05:36.657Z,15.23
2023-03-16T18:08:25.846Z,15.70
2023-03-16T18:11:07.228Z,12.60
2023-03-16T18:13:37.326Z,12.73
2023-03-16T18:16:06.297Z,13.57
2023-03-16T18:18:39.382Z,21.37
2023-03-16T18:21:06.457Z,27.43
2023-03-16T18:23:35.491Z,15.50
2023-03-16T18:26:03.527Z,15.53
2023-03-16T18:28:31.774Z,17.20
2023-03-16T18:30:59.929Z,12.20
2023-03-16T18:33:39.328Z,16.77
2023-03-16T18:36:16.367Z,53.73
2023-03-16T18:38:47.514Z,25.37
2023-03-16T18:41:22.949Z,26.97
2023-03-16T18:43:52.959Z,35.30
2023-03-16T18:46:30.999Z,30.33
2023-03-16T18:49:05.159Z,20.10
2023-03-16T18:51:32.197Z,15.03
2023-03-16T18:53:59.619Z,16.20
2023-03-16T18:56:28.990Z,17.77
2023-03-16T18:58:57.111Z,18.10
2023-03-16T19:01:33.297Z,23.37
2023-03-16T19:04:02.047Z,24.77
2023-03-16T19:06:32.603Z,69.60
2023-03-16T19:09:08.861Z,96.93
2023-03-16T19:11:42.196Z,37.93
2023-03-16T19:14:25.157Z,23.20
2023-03-16T19:16:53.998Z,17.30
2023-03-16T19:19:22.699Z,14.50
2023-03-16T19:21:56.545Z,20.40
2023-03-16T19:24:32.040Z,13.63
2023-03-16T19:26:58.974Z,11.80
2023-03-16T19:29:35.853Z,12.93
2023-03-16T19:32:02.862Z,13.50
2023-03-16T19:34:29.743Z,13.37
2023-03-16T19:36:56.639Z,12.23
2023-03-16T19:39:23.648Z,11.70
2023-03-16T19:41:58.981Z,11.40
2023-03-16T19:44:28.527Z,13.87
2023-03-16T19:46:56.134Z,14.03
2023-03-16T19:49:26.099Z,21.03
2023-03-16T19:51:55.735Z,21.00
2023-03-16T19:54:35.064Z,20.10
2023-03-16T19:57:12.392Z,13.37
2023-03-16T19:59:39.796Z,15.43
2023-03-16T20:02:27.577Z,12.73
2023-03-16T20:04:56.106Z,12.43
2023-03-16T20:07:23.184Z,10.33
2023-03-16T20:09:50.759Z,11.00
2023-03-16T20:12:26.998Z,13.53
2023-03-16T20:14:56.679Z,41.93
2023-03-16T20:17:28.127Z,19.70
2023-03-16T20:19:56.307Z,10.83
2023-03-16T20:22:27.218Z,13.33
2023-03-16T20:24:54.749Z,14.97
2023-03-16T20:27:24.177Z,14.43
2023-03-16T20:29:51.848Z,15.57
2023-03-16T20:32:26.416Z,13.50
2023-03-16T20:34:54.120Z,16.60
2023-03-16T20:37:26.293Z,16.37
2023-03-16T20:39:55.744Z,15.07
2023-03-16T20:42:33.022Z,13.50
2023-03-16T20:45:00.852Z,12.43
2023-03-16T20:47:27.816Z,22.23
2023-03-16T20:49:57.421Z,22.17
2023-03-16T20:52:30.520Z,35.87
2023-03-16T20:54:58.229Z,16.17
2023-03-16T20:57:27.718Z,13.30
2023-03-16T20:59:55.624Z,15.30
2023-03-16T21:02:35.026Z,17.80
2023-03-16T21:05:05.348Z,19.83
2023-03-16T21:07:32.426Z,20.87
2023-03-16T21:09:59.694Z,18.83
2023-03-16T21:12:28.419Z,26.53
2023-03-16T21:14:59.469Z,18.77
2023-03-16T21:17:32.436Z,17.50
2023-03-16T21:20:00.283Z,13.07
2023-03-16T21:22:35.114Z,14.27
2023-03-16T21:25:02.024Z,18.30
2023-03-16T21:27:32.405Z,19.70
2023-03-16T21:30:07.355Z,13.57
2023-03-16T21:32:34.385Z,14.00
2023-03-16T21:35:01.506Z,15.70
2023-03-16T21:37:30.306Z,15.60
2023-03-16T21:39:57.900Z,16.53
2023-03-16T21:42:26.069Z,15.37
2023-03-16T21:44:52.946Z,14.97
2023-03-16T21:47:28.838Z,13.53
2023-03-16T21:49:56.376Z,14.60
2023-03-16T21:52:27.700Z,15.13
2023-03-16T21:54:56.841Z,14.47
2023-03-16T21:57:24.021Z,19.87
2023-03-16T21:59:51.230Z,20.00
2023-03-16T22:02:24.914Z,17.10
2023-03-16T22:04:52.947Z,16.20
2023-03-16T22:07:20.799Z,14.80
2023-03-16T22:09:47.737Z,18.00
2023-03-16T22:12:15.743Z,19.23
2023-03-16T22:14:42.673Z,17.30
2023-03-16T22:17:24.551Z,20.50
2023-03-16T22:19:51.822Z,19.83
2023-03-16T22:22:18.772Z,19.03
2023-03-16T22:24:46.081Z,20.77
2023-03-16T22:27:26.081Z,20.63
2023-03-16T22:29:52.965Z,19.17
2023-03-16T22:32:21.840Z,18.50
2023-03-16T22:34:58.685Z,19.20
2023-03-16T22:37:28.652Z,18.50
2023-03-16T22:39:57.376Z,24.10
2023-03-16T22:42:37.080Z,19.70
2023-03-16T22:45:32.567Z,18.67
2023-03-16T22:48:04.722Z,16.37
2023-03-16T22:50:35.152Z,21.27
2023-03-16T22:53:06.636Z,18.17
2023-03-16T22:55:38.870Z,19.93
2023-03-16T22:58:12.968Z,19.53
2023-03-16T23:00:40.496Z,23.27
2023-03-16T23:03:19.962Z,20.47
2023-03-16T23:05:47.119Z,14.17
2023-03-16T23:08:22.827Z,20.87
2023-03-16T23:10:51.842Z,17.03
2023-03-16T23:13:24.391Z,18.43
2023-03-16T23:15:53.489Z,17.10
2023-03-16T23:18:24.352Z,18.60
2023-03-16T23:20:52.511Z,20.10
2023-03-16T23:23:19.653Z,19.10
2023-03-16T23:25:47.929Z,14.63
2023-03-16T23:28:33.115Z,17.33
2023-03-16T23:31:00.185Z,19.40
2023-03-16T23:33:27.233Z,17.67
2023-03-16T23:35:54.215Z,17.47
2023-03-16T23:38:21.174Z,16.07
2023-03-16T23:40:49.333Z,13.80
2023-03-16T23:43:17.191Z,15.90
2023-03-16T23:45:47.083Z,13.40
2023-03-16T23:48:20.596Z,18.33
2023-03-16T23:50:54.354Z,12.10
2023-03-16T23:53:21.568Z,14.97
2023-03-16T23:55:48.737Z,15.77
2023-03-16T23:58:19.089Z,17.00
